Portada
METAR-TAF:

METAR-TAF

Aeropuertos :

Lubbock, Texas, Estados Unidos

latitud: 33-40-03N, longitud: 101-49-17W, altitud: 1000 m

Observación

El informe se hizo hace 1 hora y 0 minutos, a las 07:53 UTC
Viento 10 kt del noreste
Temperatura 6°C
Humedad 52%
Presión 1018 hPa
Visibilidad: 16.1 km
Cielo cubierto a una altura de 25000 ft

METAR: KLBB 270753Z 05010KT 10SM OVC250 06/M03 A3006 RMK AO2 SLP151 OVC LYR THN T00611028

Hora: 02:53 (08:53 UTC)

Pronóstico

El informe se hizo hace 3 horas y 33 minutos, a las 05:20 UTC
Pronóstico válido del 27 a las 06 UTC al 28 a las 06 UTC
Viento 7 kt del noreste
Visibilidad: 10 km
Cielo nuboso a una altura de 25000 ft
A partir de las 27 a las 1600 UTC
Viento 16 kt del noreste
Visibilidad: 10 km
Nubes dispersas a una altura de 25000 ft

TAF: KLBB 270520Z 2706/2806 04007KT P6SM BKN250 FM271600 04016KT P6SM SCT250

Observaciones y pronósticos meteorológicos de más de 4000 aeropuertos (mensajes METAR y TAF).

Los puntos amarillos y rojos representan las estaciones disponibles.

Ponga el ratón en el punto deseado para ver el nombre de la estación.

Haga clic para ver las observaciones y los pronósticos meteorológicos.

Para cambiar el mapa : haga clic en los botones verdes con una cruz de color negro para hacer un zoom, en el botón verde con un guión para alejar o en las flechas verdes para mapas adyacentes.


METAR-TAF: